Accueil
METAR-TAF:

METAR-TAF

Aéroports :

Cazaux, France

Base aérienne 120 Cazaux

latitude: 44-32N, longitude: 001-08W, altitude: 25 m

Observation

Le bulletin a été fait il y a 33 minutes, à 22:30 UTC
Vent 4 kt de nord/nord-est
Température 17°C
Humidité 77%
Pression 1024 hPa
Visibilité 10 km ou plus
pas de nuages en-dessous de 1500 mètres et pas de cumulonimbus.

METAR: LFBC 202230Z AUTO 03004KT CAVOK 17/13 Q1024

Heure: 01:03 (23:03 UTC)

Prévision

Le bulletin a été fait il y a 31 heures et 33 minutes, à 15:30 UTC
Prévision valable du 19 à 15 UTC au 20 à 15 UTC
Vent 8 kt de nord-ouest
Visibilité 10 km ou plus
pas de nuages en-dessous de 1500 mètres et pas de cumulonimbus.

TAF: LFBC 191530Z 1915/2015 32008KT CAVOK

Observations et prévisions météorologiques de plus de 4000 aéroports (messages METAR et TAF).

Les stations disponibles sont représentées par des disques jaunes et rouges sur la carte.

Passer la souris dessus pour voir le nom de la station.

Cliquer dessus pour voir les observations et prévisions météorologiques.

Pour changer de carte: cliquez sur les boutons verts avec une croix noire pour zoomer, sur le bouton vert avec un tiret pour effectuer un zoom arrière, ou sur les flèches vertes pour les cartes adjacentes.


METAR-TAF: